createdAt,value
2023-01-27T00:02:23.307Z,26.33
2023-01-27T00:04:52.133Z,24.83
2023-01-27T00:07:21.217Z,26.23
2023-01-27T00:09:50.110Z,27.47
2023-01-27T00:12:39.427Z,27.40
2023-01-27T00:15:10.950Z,25.63
2023-01-27T00:17:42.284Z,25.67
2023-01-27T00:20:13.669Z,26.00
2023-01-27T00:23:00.489Z,29.43
2023-01-27T00:25:29.329Z,25.77
2023-01-27T00:27:58.379Z,27.13
2023-01-27T00:30:27.816Z,26.07
2023-01-27T00:33:15.762Z,28.70
2023-01-27T00:35:44.534Z,25.93
2023-01-27T00:38:13.658Z,29.23
2023-01-27T00:41:02.824Z,27.02
2023-01-27T00:43:31.967Z,26.43
2023-01-27T00:46:01.428Z,27.03
2023-01-27T00:48:32.019Z,26.43
2023-01-27T00:51:01.204Z,27.80
2023-01-27T00:53:31.118Z,25.20
2023-01-27T00:56:00.196Z,27.40
2023-01-27T00:58:30.849Z,28.07
2023-01-27T01:01:02.076Z,26.60
2023-01-27T01:03:34.557Z,28.47
2023-01-27T01:06:07.513Z,26.07
2023-01-27T01:08:38.907Z,26.63
2023-01-27T01:11:09.403Z,25.43
2023-01-27T01:13:38.473Z,26.77
2023-01-27T01:16:11.422Z,23.60
2023-01-27T01:18:42.986Z,26.05
2023-01-27T01:21:13.054Z,23.33
2023-01-27T01:23:44.203Z,25.87
2023-01-27T01:26:16.304Z,24.67
2023-01-27T01:28:46.434Z,22.63
2023-01-27T01:31:18.865Z,23.63
2023-01-27T01:33:50.309Z,23.47
2023-01-27T01:36:22.545Z,23.00
2023-01-27T01:38:57.469Z,22.27
2023-01-27T01:41:27.441Z,23.83
2023-01-27T01:43:56.718Z,23.07
2023-01-27T01:46:25.600Z,23.17
2023-01-27T01:49:00.967Z,20.20
2023-01-27T01:51:36.165Z,22.27
2023-01-27T01:54:10.757Z,20.50
2023-01-27T01:56:45.808Z,21.67
2023-01-27T01:59:21.408Z,20.50
2023-01-27T02:01:52.444Z,23.57
2023-01-27T02:04:29.159Z,22.37
2023-01-27T02:07:08.606Z,23.10
2023-01-27T02:09:39.842Z,22.27
2023-01-27T02:12:08.852Z,21.90
2023-01-27T02:14:41.160Z,27.07
2023-01-27T02:17:13.977Z,24.73
2023-01-27T02:19:58.096Z,22.63
2023-01-27T02:22:39.188Z,20.93
2023-01-27T02:25:24.745Z,21.70
2023-01-27T02:27:55.168Z,23.73
2023-01-27T02:30:24.529Z,21.60
2023-01-27T02:32:53.458Z,19.97
2023-01-27T02:35:32.129Z,24.63
2023-01-27T02:38:02.179Z,20.50
2023-01-27T02:40:33.637Z,24.13
2023-01-27T02:43:06.623Z,22.87
2023-01-27T02:45:35.870Z,22.90
2023-01-27T02:48:04.923Z,23.90
2023-01-27T02:50:34.285Z,24.27
2023-01-27T02:53:04.928Z,21.07
2023-01-27T02:55:34.221Z,22.20
2023-01-27T02:58:04.850Z,26.00
2023-01-27T03:00:54.333Z,21.50
2023-01-27T03:03:23.194Z,22.87
2023-01-27T03:05:52.510Z,22.40
2023-01-27T03:08:21.732Z,23.10
2023-01-27T03:10:53.098Z,22.97
2023-01-27T03:13:28.125Z,27.23
2023-01-27T03:16:17.985Z,22.67
2023-01-27T03:18:49.660Z,23.90
2023-01-27T03:21:20.491Z,25.77
2023-01-27T03:23:49.943Z,25.98
2023-01-27T03:26:23.703Z,24.67
2023-01-27T03:29:12.490Z,25.50
2023-01-27T03:31:44.844Z,27.50
2023-01-27T03:34:13.664Z,23.07
2023-01-27T03:37:22.718Z,24.42
2023-01-27T03:40:10.554Z,25.57
2023-01-27T03:42:57.054Z,26.77
2023-01-27T03:45:44.430Z,27.40
2023-01-27T03:48:13.895Z,26.83
2023-01-27T03:50:43.839Z,24.23
2023-01-27T03:53:13.353Z,23.35
2023-01-27T03:55:42.210Z,26.17
2023-01-27T03:58:21.116Z,24.43
2023-01-27T04:00:55.398Z,28.50
2023-01-27T04:03:46.820Z,23.90
2023-01-27T04:06:36.013Z,25.93
2023-01-27T04:09:07.261Z,26.47
2023-01-27T04:11:53.673Z,28.13
2023-01-27T04:14:24.873Z,24.80
2023-01-27T04:16:57.690Z,27.60
2023-01-27T04:19:27.122Z,27.97
2023-01-27T04:21:56.821Z,25.77
2023-01-27T04:24:26.314Z,26.33
2023-01-27T04:26:58.372Z,25.23
2023-01-27T04:29:30.229Z,25.27
2023-01-27T04:32:00.530Z,25.93
2023-01-27T04:34:29.937Z,26.53
2023-01-27T04:36:59.360Z,25.90
2023-01-27T04:39:28.620Z,28.60
2023-01-27T04:41:57.921Z,26.50
2023-01-27T04:44:27.828Z,24.63
2023-01-27T04:46:56.681Z,29.17
2023-01-27T04:49:27.752Z,25.60
2023-01-27T04:51:56.579Z,30.52
2023-01-27T04:54:25.670Z,26.80
2023-01-27T04:57:00.372Z,27.07
2023-01-27T04:59:29.894Z,23.40
2023-01-27T05:01:59.338Z,29.93
2023-01-27T05:04:29.935Z,28.53
2023-01-27T05:06:58.856Z,25.30
2023-01-27T05:09:27.937Z,24.07
2023-01-27T05:11:56.763Z,27.20
2023-01-27T05:14:26.174Z,26.53
2023-01-27T05:16:55.052Z,27.47
2023-01-27T05:19:24.133Z,26.50
2023-01-27T05:21:54.372Z,28.03
2023-01-27T05:24:23.645Z,29.40
2023-01-27T05:26:53.540Z,30.10
2023-01-27T05:29:22.756Z,28.80
2023-01-27T05:31:51.645Z,33.90
2023-01-27T05:34:20.731Z,28.33
2023-01-27T05:36:49.540Z,29.47
2023-01-27T05:39:20.010Z,32.47
2023-01-27T05:41:49.138Z,32.27
2023-01-27T05:44:18.310Z,25.90
2023-01-27T05:46:47.219Z,29.43
2023-01-27T05:49:16.425Z,30.80
2023-01-27T05:51:45.283Z,30.67
2023-01-27T05:54:14.335Z,30.10
2023-01-27T05:56:44.495Z,28.33
2023-01-27T05:59:13.986Z,29.13
2023-01-27T06:01:42.778Z,29.07
2023-01-27T06:04:12.308Z,36.37
2023-01-27T06:06:41.148Z,36.00
2023-01-27T06:09:11.725Z,31.83
2023-01-27T06:11:40.635Z,26.43
2023-01-27T06:14:11.301Z,26.50
2023-01-27T06:16:40.125Z,30.03
2023-01-27T06:19:09.239Z,29.97
2023-01-27T06:21:38.030Z,36.37
2023-01-27T06:24:07.844Z,31.93
2023-01-27T06:26:37.197Z,30.53
2023-01-27T06:29:06.286Z,29.27
2023-01-27T06:31:36.626Z,29.00
2023-01-27T06:34:05.795Z,27.87
2023-01-27T06:36:34.627Z,29.40
2023-01-27T06:39:03.725Z,29.83
2023-01-27T06:41:32.611Z,29.10
2023-01-27T06:44:01.762Z,30.17
2023-01-27T06:46:30.516Z,29.50
2023-01-27T06:49:00.977Z,28.80
2023-01-27T06:51:29.784Z,30.33
2023-01-27T06:53:58.857Z,30.87
2023-01-27T06:56:27.684Z,29.93
2023-01-27T06:58:56.745Z,30.17
2023-01-27T07:01:25.643Z,32.47
2023-01-27T07:03:54.878Z,30.70
2023-01-27T07:06:25.112Z,34.43
2023-01-27T07:08:55.570Z,29.98
2023-01-27T07:11:25.515Z,31.15
2023-01-27T07:13:54.586Z,30.13
2023-01-27T07:16:23.446Z,32.73
2023-01-27T07:18:52.522Z,32.65
2023-01-27T07:21:21.293Z,36.63
2023-01-27T07:23:51.769Z,33.65
2023-01-27T07:26:25.084Z,32.07
2023-01-27T07:28:54.674Z,37.80
2023-01-27T07:31:23.707Z,37.47
2023-01-27T07:33:54.560Z,33.70
2023-01-27T07:36:23.395Z,38.90
2023-01-27T07:38:53.901Z,32.63
2023-01-27T07:41:23.096Z,40.70
2023-01-27T07:43:52.666Z,38.13
2023-01-27T07:46:21.946Z,35.90
2023-01-27T07:48:51.037Z,34.47
2023-01-27T07:51:20.071Z,31.97
2023-01-27T07:53:49.126Z,32.65
2023-01-27T07:56:19.289Z,34.55
2023-01-27T07:58:48.393Z,35.58
2023-01-27T08:01:17.284Z,34.10
2023-01-27T08:03:46.334Z,34.22
2023-01-27T08:06:15.398Z,37.83
2023-01-27T08:08:44.561Z,35.67
2023-01-27T08:11:16.102Z,36.88
2023-01-27T08:13:46.323Z,33.10
2023-01-27T08:16:17.020Z,35.97
2023-01-27T08:18:45.898Z,40.83
2023-01-27T08:21:15.088Z,51.47
2023-01-27T08:23:43.884Z,50.33
2023-01-27T08:26:13.054Z,46.22
2023-01-27T08:28:42.412Z,51.13
2023-01-27T08:31:16.130Z,55.25
2023-01-27T08:33:47.410Z,55.97
2023-01-27T08:36:18.714Z,50.25
2023-01-27T08:38:49.322Z,51.75
2023-01-27T08:41:22.425Z,57.40
2023-01-27T08:43:52.093Z,42.10
2023-01-27T08:46:22.789Z,49.45
2023-01-27T08:48:51.818Z,49.25
2023-01-27T08:51:20.935Z,51.00
2023-01-27T08:53:49.744Z,49.17
2023-01-27T08:56:19.040Z,43.53
2023-01-27T08:58:48.616Z,47.78
2023-01-27T09:01:18.344Z,41.05
2023-01-27T09:03:48.660Z,48.30
2023-01-27T09:06:18.659Z,44.28
2023-01-27T09:09:11.202Z,40.38
2023-01-27T09:11:45.657Z,39.83
2023-01-27T09:14:15.060Z,34.70
2023-01-27T09:16:44.141Z,40.90
2023-01-27T09:19:14.354Z,36.83
2023-01-27T09:21:43.431Z,37.40
2023-01-27T09:24:13.811Z,34.72
2023-01-27T09:26:42.878Z,36.60
2023-01-27T09:29:11.707Z,32.67
2023-01-27T09:31:40.908Z,31.92
2023-01-27T09:34:09.768Z,35.92
2023-01-27T09:36:48.525Z,34.13
2023-01-27T09:39:21.516Z,35.40
2023-01-27T09:42:20.211Z,37.80
2023-01-27T09:45:25.899Z,37.55
2023-01-27T09:48:27.395Z,32.55
2023-01-27T09:51:10.728Z,34.47
2023-01-27T09:54:01.911Z,31.15
2023-01-27T09:56:47.694Z,29.25
2023-01-27T09:59:34.849Z,30.23
2023-01-27T10:02:27.117Z,34.85
2023-01-27T10:05:26.567Z,32.20
2023-01-27T10:08:43.619Z,31.25
2023-01-27T10:11:25.373Z,30.83
2023-01-27T10:14:15.656Z,28.27
2023-01-27T10:17:25.012Z,29.05
2023-01-27T10:20:14.357Z,33.60
2023-01-27T10:23:01.356Z,28.85
2023-01-27T10:25:49.240Z,31.20
2023-01-27T10:28:25.376Z,28.63
2023-01-27T10:31:02.585Z,26.80
2023-01-27T10:33:52.237Z,23.95
2023-01-27T10:36:30.559Z,33.83
2023-01-27T10:39:22.247Z,30.02
2023-01-27T10:42:05.324Z,30.35
2023-01-27T10:45:04.784Z,30.33
2023-01-27T10:47:53.323Z,33.92
2023-01-27T10:50:30.504Z,27.25
2023-01-27T10:53:10.233Z,30.15
2023-01-27T10:55:46.753Z,28.00
2023-01-27T10:58:25.806Z,31.48
2023-01-27T11:01:19.925Z,32.13
2023-01-27T11:03:54.561Z,32.17
2023-01-27T11:06:29.154Z,31.65
2023-01-27T11:09:23.970Z,31.13
2023-01-27T11:11:55.136Z,31.00
2023-01-27T11:14:30.008Z,33.42
2023-01-27T11:17:15.438Z,37.45
2023-01-27T11:19:57.400Z,39.63
2023-01-27T11:22:36.712Z,38.10
2023-01-27T11:25:19.901Z,33.55
2023-01-27T11:28:05.234Z,37.78
2023-01-27T11:30:44.306Z,32.47
2023-01-27T11:33:29.001Z,35.83
2023-01-27T11:35:57.866Z,37.05
2023-01-27T11:38:27.420Z,35.30
2023-01-27T11:40:56.446Z,31.70
2023-01-27T11:43:29.080Z,36.13
2023-01-27T11:46:07.110Z,33.92
2023-01-27T11:48:43.258Z,38.92
2023-01-27T11:51:21.568Z,37.10
2023-01-27T11:54:11.155Z,32.92
2023-01-27T11:56:43.468Z,35.42
2023-01-27T11:59:20.089Z,40.85
2023-01-27T12:01:56.489Z,42.65
2023-01-27T12:04:51.899Z,43.22
2023-01-27T12:07:35.141Z,45.00
2023-01-27T12:10:22.192Z,36.35
2023-01-27T12:12:51.184Z,37.75
2023-01-27T12:15:20.823Z,36.88
2023-01-27T12:17:55.614Z,39.00
2023-01-27T12:20:35.866Z,35.88
2023-01-27T12:23:19.878Z,33.22
2023-01-27T12:25:54.600Z,38.97
2023-01-27T12:28:31.090Z,38.72
2023-01-27T12:31:09.570Z,38.38
2023-01-27T12:33:45.304Z,39.13
2023-01-27T12:36:22.594Z,37.35
2023-01-27T12:38:55.242Z,48.03
2023-01-27T12:41:28.254Z,40.92
2023-01-27T12:44:00.469Z,43.30
2023-01-27T12:46:32.956Z,46.40
2023-01-27T12:49:09.974Z,37.65
2023-01-27T12:51:45.719Z,41.05
2023-01-27T12:54:23.504Z,40.17
2023-01-27T12:56:55.359Z,36.33
2023-01-27T12:59:26.832Z,33.72
2023-01-27T13:02:03.419Z,36.78
2023-01-27T13:04:32.620Z,30.55
2023-01-27T13:07:13.011Z,32.72
2023-01-27T13:09:52.071Z,33.63
2023-01-27T13:12:28.433Z,31.38
2023-01-27T13:14:59.694Z,34.50
2023-01-27T13:17:39.553Z,36.92
2023-01-27T13:20:22.287Z,37.95
2023-01-27T13:23:00.855Z,36.65
2023-01-27T13:25:39.730Z,40.37
2023-01-27T13:28:14.872Z,42.75
2023-01-27T13:30:52.494Z,45.17
2023-01-27T13:33:38.316Z,49.25
2023-01-27T13:36:18.439Z,47.50
2023-01-27T13:38:58.706Z,42.63
2023-01-27T13:41:40.024Z,47.60
2023-01-27T13:44:27.943Z,44.28
2023-01-27T13:47:03.825Z,41.60
2023-01-27T13:49:38.899Z,39.05
2023-01-27T13:52:08.397Z,40.53
2023-01-27T13:54:39.104Z,47.78
2023-01-27T13:57:29.279Z,53.17
2023-01-27T14:00:12.393Z,47.35
2023-01-27T14:03:31.556Z,42.83
2023-01-27T14:06:21.809Z,54.00
2023-01-27T14:09:20.472Z,51.00
2023-01-27T14:12:00.253Z,50.22
2023-01-27T14:14:57.426Z,55.25
2023-01-27T14:17:45.241Z,40.95
2023-01-27T14:20:52.776Z,46.22
2023-01-27T14:23:41.105Z,40.20
2023-01-27T14:26:37.765Z,42.92
2023-01-27T14:29:24.839Z,40.63
2023-01-27T14:32:05.871Z,44.17
2023-01-27T14:34:56.491Z,45.87
2023-01-27T14:37:36.518Z,49.03
2023-01-27T14:40:22.526Z,47.97
2023-01-27T14:43:12.154Z,53.50
2023-01-27T14:45:50.758Z,44.08
2023-01-27T14:48:41.755Z,49.28
2023-01-27T14:51:27.461Z,49.30
2023-01-27T14:54:27.198Z,47.97
2023-01-27T14:57:22.487Z,44.50
2023-01-27T15:00:06.502Z,51.50
2023-01-27T15:02:49.282Z,48.28
2023-01-27T15:05:31.522Z,47.75
2023-01-27T15:08:12.821Z,48.38
2023-01-27T15:10:50.810Z,48.55
2023-01-27T15:13:54.248Z,49.37
2023-01-27T15:16:54.233Z,43.53
2023-01-27T15:19:53.297Z,54.93
2023-01-27T15:22:45.259Z,56.90
2023-01-27T15:25:33.374Z,53.77
2023-01-27T15:28:05.411Z,50.30
2023-01-27T15:30:38.537Z,51.17
2023-01-27T15:33:56.431Z,45.23
2023-01-27T15:36:36.005Z,46.70
2023-01-27T15:39:25.941Z,49.00
2023-01-27T15:42:12.491Z,51.63
2023-01-27T15:44:59.333Z,49.78
2023-01-27T15:47:32.976Z,46.13
2023-01-27T15:50:14.066Z,48.53
2023-01-27T15:52:47.486Z,45.77
2023-01-27T15:55:30.104Z,47.03
2023-01-27T15:58:23.831Z,52.53
2023-01-27T16:00:56.385Z,53.25
2023-01-27T16:03:32.524Z,46.40
2023-01-27T16:06:12.190Z,58.23
2023-01-27T16:08:49.855Z,54.92
2023-01-27T16:11:44.044Z,51.67
2023-01-27T16:14:45.567Z,52.25
2023-01-27T16:17:26.655Z,45.90
2023-01-27T16:20:21.534Z,48.70
2023-01-27T16:23:00.316Z,48.67
2023-01-27T16:25:42.317Z,47.47
2023-01-27T16:28:20.868Z,49.80
2023-01-27T16:31:07.362Z,53.40
2023-01-27T16:33:42.638Z,53.22
2023-01-27T16:36:24.928Z,56.43
2023-01-27T16:38:56.726Z,56.47
2023-01-27T16:41:30.930Z,53.90
2023-01-27T16:44:04.507Z,56.90
2023-01-27T16:46:38.508Z,45.28
2023-01-27T16:49:20.739Z,49.55
2023-01-27T16:51:56.485Z,52.95
2023-01-27T16:54:32.359Z,51.40
2023-01-27T16:57:05.732Z,51.10
2023-01-27T16:59:39.586Z,56.78
2023-01-27T17:02:21.852Z,55.97
2023-01-27T17:04:52.793Z,53.27
2023-01-27T17:07:21.945Z,54.03
2023-01-27T17:09:54.185Z,52.03
2023-01-27T17:12:34.222Z,57.00
2023-01-27T17:15:17.877Z,58.83
2023-01-27T17:17:47.839Z,46.57
2023-01-27T17:20:27.187Z,51.33
2023-01-27T17:22:57.549Z,55.47
2023-01-27T17:25:32.814Z,56.42
2023-01-27T17:28:11.538Z,55.53
2023-01-27T17:30:43.954Z,58.80
2023-01-27T17:33:20.239Z,53.97
2023-01-27T17:35:54.698Z,56.33
2023-01-27T17:38:34.116Z,59.23
2023-01-27T17:41:03.242Z,55.60
2023-01-27T17:43:37.394Z,56.30
2023-01-27T17:46:26.560Z,57.47
2023-01-27T17:49:00.028Z,54.47
2023-01-27T17:51:36.717Z,60.53
2023-01-27T17:54:22.322Z,58.37
2023-01-27T17:57:00.316Z,51.60
2023-01-27T17:59:30.883Z,53.70
2023-01-27T18:02:07.646Z,67.03
2023-01-27T18:04:43.090Z,59.03
2023-01-27T18:07:12.763Z,65.03
2023-01-27T18:09:52.171Z,56.93
2023-01-27T18:12:33.406Z,60.70
2023-01-27T18:15:42.158Z,54.70
2023-01-27T18:18:25.145Z,54.93
2023-01-27T18:21:07.543Z,55.10
2023-01-27T18:23:39.459Z,55.53
2023-01-27T18:26:20.010Z,58.25
2023-01-27T18:28:54.571Z,56.20
2023-01-27T18:31:29.850Z,57.40
2023-01-27T18:34:01.843Z,57.43
2023-01-27T18:36:35.397Z,67.40
2023-01-27T18:39:24.494Z,60.13
2023-01-27T18:41:54.368Z,60.47
2023-01-27T18:44:27.379Z,63.67
2023-01-27T18:47:21.563Z,62.13
2023-01-27T18:49:57.623Z,58.10
2023-01-27T18:52:26.855Z,56.60
2023-01-27T18:55:01.637Z,57.65
2023-01-27T18:57:30.756Z,61.58
2023-01-27T18:59:59.638Z,58.83
2023-01-27T19:02:30.132Z,57.17
2023-01-27T19:04:59.010Z,55.85
2023-01-27T19:07:28.089Z,65.18
2023-01-27T19:09:56.939Z,54.97
2023-01-27T19:12:26.037Z,60.88
2023-01-27T19:14:54.833Z,56.20
2023-01-27T19:17:24.308Z,56.10
2023-01-27T19:19:55.652Z,58.50
2023-01-27T19:22:24.763Z,58.03
2023-01-27T19:24:53.527Z,58.17
2023-01-27T19:27:22.623Z,65.78
2023-01-27T19:29:51.482Z,57.65
2023-01-27T19:32:20.718Z,60.28
2023-01-27T19:34:49.491Z,54.13
2023-01-27T19:37:20.579Z,58.05
2023-01-27T19:39:49.791Z,52.88
2023-01-27T19:42:18.877Z,54.25
2023-01-27T19:44:47.661Z,55.10
2023-01-27T19:47:17.139Z,51.28
2023-01-27T19:49:46.072Z,63.28
2023-01-27T19:52:15.205Z,48.13
2023-01-27T19:54:45.484Z,49.05
2023-01-27T19:57:20.832Z,53.40
2023-01-27T19:59:49.684Z,50.13
2023-01-27T20:02:18.872Z,55.00
2023-01-27T20:04:47.795Z,49.13
2023-01-27T20:07:16.991Z,45.65
2023-01-27T20:09:47.261Z,44.47
2023-01-27T20:12:17.790Z,47.55
2023-01-27T20:14:46.598Z,46.83
2023-01-27T20:17:15.684Z,47.58
2023-01-27T20:19:47.807Z,46.10
2023-01-27T20:22:16.995Z,43.97
2023-01-27T20:24:47.375Z,48.92
2023-01-27T20:27:16.522Z,44.63
2023-01-27T20:29:46.580Z,45.47
2023-01-27T20:32:15.701Z,46.13
2023-01-27T20:34:44.481Z,46.63
2023-01-27T20:37:13.601Z,49.67
2023-01-27T20:39:42.422Z,49.55
2023-01-27T20:42:12.867Z,48.20
2023-01-27T20:44:41.737Z,65.75
2023-01-27T20:47:13.341Z,58.80
2023-01-27T20:49:43.353Z,44.00
2023-01-27T20:52:12.468Z,40.03
2023-01-27T20:54:41.309Z,36.67
2023-01-27T20:57:10.402Z,33.83
2023-01-27T20:59:42.092Z,32.33
2023-01-27T21:02:11.966Z,37.75
2023-01-27T21:04:41.033Z,38.63
2023-01-27T21:07:10.300Z,34.95
2023-01-27T21:09:39.067Z,43.75
2023-01-27T21:12:08.414Z,36.78
2023-01-27T21:14:39.785Z,34.15
2023-01-27T21:17:11.796Z,37.70
2023-01-27T21:19:40.654Z,37.40
2023-01-27T21:22:09.756Z,36.45
2023-01-27T21:24:38.649Z,36.45
2023-01-27T21:27:07.827Z,38.28
2023-01-27T21:29:36.643Z,39.15
2023-01-27T21:32:06.337Z,38.03
2023-01-27T21:34:36.615Z,40.95
2023-01-27T21:37:05.763Z,37.17
2023-01-27T21:39:34.605Z,36.22
2023-01-27T21:42:20.970Z,36.65
2023-01-27T21:45:06.874Z,38.15
2023-01-27T21:47:35.975Z,31.87
2023-01-27T21:50:07.026Z,33.20
2023-01-27T21:52:39.674Z,36.43
2023-01-27T21:55:12.237Z,37.75
2023-01-27T21:57:43.335Z,35.10
2023-01-27T22:00:15.189Z,37.42
2023-01-27T22:02:44.764Z,34.92
2023-01-27T22:05:15.333Z,34.38
2023-01-27T22:07:44.729Z,35.37
2023-01-27T22:10:17.331Z,34.40
2023-01-27T22:12:47.482Z,36.10
2023-01-27T22:15:18.310Z,34.80
2023-01-27T22:17:47.586Z,41.95
2023-01-27T22:20:19.311Z,35.40
2023-01-27T22:22:48.711Z,33.92
2023-01-27T22:25:18.363Z,36.75
2023-01-27T22:27:47.763Z,36.33
2023-01-27T22:30:19.653Z,34.03
2023-01-27T22:32:49.838Z,33.22
2023-01-27T22:35:20.240Z,38.53
2023-01-27T22:37:49.773Z,38.00
2023-01-27T22:40:18.908Z,34.05
2023-01-27T22:42:50.111Z,35.25
2023-01-27T22:45:19.314Z,35.05
2023-01-27T22:47:49.495Z,33.45
2023-01-27T22:50:20.462Z,37.28
2023-01-27T22:52:49.568Z,37.28
2023-01-27T22:55:20.313Z,40.33
2023-01-27T22:57:49.388Z,38.25
2023-01-27T23:00:18.932Z,37.58
2023-01-27T23:02:48.028Z,36.58
2023-01-27T23:05:17.492Z,37.00
2023-01-27T23:07:49.478Z,35.70
2023-01-27T23:10:19.110Z,36.35
2023-01-27T23:12:48.235Z,36.22
2023-01-27T23:15:17.480Z,36.15
2023-01-27T23:17:48.742Z,35.50
2023-01-27T23:20:18.075Z,33.55
2023-01-27T23:22:48.603Z,32.28
2023-01-27T23:25:17.944Z,36.75
2023-01-27T23:27:47.018Z,34.90
2023-01-27T23:30:16.192Z,36.00
2023-01-27T23:32:45.821Z,34.60
2023-01-27T23:35:14.890Z,35.75
2023-01-27T23:37:44.158Z,30.48
2023-01-27T23:40:15.283Z,32.90
2023-01-27T23:42:44.357Z,34.95
2023-01-27T23:45:13.543Z,32.05
2023-01-27T23:47:42.774Z,32.55
2023-01-27T23:50:12.858Z,31.00
2023-01-27T23:52:42.386Z,34.30
2023-01-27T23:55:14.737Z,32.55
2023-01-27T23:57:44.085Z,31.83
